sensor_id;sensor_type;location;lat;lon;timestamp;temperature;humidity
4056;DHT22;2043;52.184;8.690;2022-11-15T00:00:56;9.70;95.10
4056;DHT22;2043;52.184;8.690;2022-11-15T00:03:25;9.80;95.00
4056;DHT22;2043;52.184;8.690;2022-11-15T00:05:52;9.70;95.10
4056;DHT22;2043;52.184;8.690;2022-11-15T00:08:19;9.80;94.90
4056;DHT22;2043;52.184;8.690;2022-11-15T00:11:00;9.80;95.00
4056;DHT22;2043;52.184;8.690;2022-11-15T00:13:27;9.80;95.00
4056;DHT22;2043;52.184;8.690;2022-11-15T00:15:59;9.90;95.20
4056;DHT22;2043;52.184;8.690;2022-11-15T00:18:26;10.10;95.00
4056;DHT22;2043;52.184;8.690;2022-11-15T00:20:53;10.00;95.90
4056;DHT22;2043;52.184;8.690;2022-11-15T00:23:20;10.00;97.20
4056;DHT22;2043;52.184;8.690;2022-11-15T00:25:47;10.00;97.90
4056;DHT22;2043;52.184;8.690;2022-11-15T00:28:14;10.10;98.20
4056;DHT22;2043;52.184;8.690;2022-11-15T00:30:40;10.00;99.00
4056;DHT22;2043;52.184;8.690;2022-11-15T00:33:08;10.10;98.90
4056;DHT22;2043;52.184;8.690;2022-11-15T00:35:36;10.20;98.70
4056;DHT22;2043;52.184;8.690;2022-11-15T00:38:12;10.10;98.80
4056;DHT22;2043;52.184;8.690;2022-11-15T00:40:39;10.10;98.70
4056;DHT22;2043;52.184;8.690;2022-11-15T00:43:05;10.10;98.50
4056;DHT22;2043;52.184;8.690;2022-11-15T00:45:32;10.10;98.40
4056;DHT22;2043;52.184;8.690;2022-11-15T00:47:59;10.30;97.80
4056;DHT22;2043;52.184;8.690;2022-11-15T00:50:26;10.20;97.80
4056;DHT22;2043;52.184;8.690;2022-11-15T00:52:52;10.10;97.90
4056;DHT22;2043;52.184;8.690;2022-11-15T00:55:19;10.10;98.20
4056;DHT22;2043;52.184;8.690;2022-11-15T00:57:46;10.30;97.80
4056;DHT22;2043;52.184;8.690;2022-11-15T01:00:13;10.40;97.70
4056;DHT22;2043;52.184;8.690;2022-11-15T01:02:40;10.40;98.10
4056;DHT22;2043;52.184;8.690;2022-11-15T01:05:08;10.40;98.10
4056;DHT22;2043;52.184;8.690;2022-11-15T01:10:03;10.50;98.10
4056;DHT22;2043;52.184;8.690;2022-11-15T01:12:30;10.60;98.20
4056;DHT22;2043;52.184;8.690;2022-11-15T01:14:57;10.70;98.30
4056;DHT22;2043;52.184;8.690;2022-11-15T01:17:24;10.70;98.30
4056;DHT22;2043;52.184;8.690;2022-11-15T01:19:50;10.70;98.60
4056;DHT22;2043;52.184;8.690;2022-11-15T01:24:44;10.90;98.20
4056;DHT22;2043;52.184;8.690;2022-11-15T01:27:11;10.90;98.40
4056;DHT22;2043;52.184;8.690;2022-11-15T01:29:38;10.90;98.50
4056;DHT22;2043;52.184;8.690;2022-11-15T01:32:05;11.10;98.60
4056;DHT22;2043;52.184;8.690;2022-11-15T01:34:31;11.00;98.80
4056;DHT22;2043;52.184;8.690;2022-11-15T01:36:58;11.10;98.90
4056;DHT22;2043;52.184;8.690;2022-11-15T01:39:25;11.20;98.70
4056;DHT22;2043;52.184;8.690;2022-11-15T01:41:53;11.20;98.60
4056;DHT22;2043;52.184;8.690;2022-11-15T01:44:46;11.20;98.90
4056;DHT22;2043;52.184;8.690;2022-11-15T01:50:00;11.10;99.10
4056;DHT22;2043;52.184;8.690;2022-11-15T01:52:29;11.20;99.20
4056;DHT22;2043;52.184;8.690;2022-11-15T01:55:13;11.30;99.30
4056;DHT22;2043;52.184;8.690;2022-11-15T01:57:42;11.40;98.70
4056;DHT22;2043;52.184;8.690;2022-11-15T02:00:12;11.40;98.80
4056;DHT22;2043;52.184;8.690;2022-11-15T02:02:39;11.30;99.30
4056;DHT22;2043;52.184;8.690;2022-11-15T02:05:07;11.50;99.10
4056;DHT22;2043;52.184;8.690;2022-11-15T02:07:35;11.50;98.80
4056;DHT22;2043;52.184;8.690;2022-11-15T02:10:10;11.60;98.90
4056;DHT22;2043;52.184;8.690;2022-11-15T02:12:37;11.60;99.00
4056;DHT22;2043;52.184;8.690;2022-11-15T02:15:05;11.50;99.00
4056;DHT22;2043;52.184;8.690;2022-11-15T02:25:57;11.50;99.40
4056;DHT22;2043;52.184;8.690;2022-11-15T02:34:22;11.80;99.20
4056;DHT22;2043;52.184;8.690;2022-11-15T02:39:50;11.80;99.40
4056;DHT22;2043;52.184;8.690;2022-11-15T02:42:23;11.70;99.50
4056;DHT22;2043;52.184;8.690;2022-11-15T02:45:10;11.70;99.50
4056;DHT22;2043;52.184;8.690;2022-11-15T02:47:44;11.70;99.80
4056;DHT22;2043;52.184;8.690;2022-11-15T02:50:18;11.60;99.90
4056;DHT22;2043;52.184;8.690;2022-11-15T02:52:48;11.70;99.90
4056;DHT22;2043;52.184;8.690;2022-11-15T02:55:46;11.90;99.70
4056;DHT22;2043;52.184;8.690;2022-11-15T03:01:32;11.70;99.90
4056;DHT22;2043;52.184;8.690;2022-11-15T03:07:06;11.90;99.90
4056;DHT22;2043;52.184;8.690;2022-11-15T03:10:02;11.80;99.90
4056;DHT22;2043;52.184;8.690;2022-11-15T03:12:43;11.70;99.90
4056;DHT22;2043;52.184;8.690;2022-11-15T03:15:33;11.70;99.90
4056;DHT22;2043;52.184;8.690;2022-11-15T03:18:06;11.80;99.90
4056;DHT22;2043;52.184;8.690;2022-11-15T03:20:37;11.70;99.90
4056;DHT22;2043;52.184;8.690;2022-11-15T03:23:06;11.70;99.90
4056;DHT22;2043;52.184;8.690;2022-11-15T03:25:38;11.80;99.90
4056;DHT22;2043;52.184;8.690;2022-11-15T03:28:09;11.80;99.90
4056;DHT22;2043;52.184;8.690;2022-11-15T03:30:38;11.80;99.90
4056;DHT22;2043;52.184;8.690;2022-11-15T03:33:07;11.70;99.90
4056;DHT22;2043;52.184;8.690;2022-11-15T03:35:38;11.70;99.90
4056;DHT22;2043;52.184;8.690;2022-11-15T03:38:25;11.60;99.90
4056;DHT22;2043;52.184;8.690;2022-11-15T03:40:59;11.50;99.90
4056;DHT22;2043;52.184;8.690;2022-11-15T03:46:16;11.50;99.90
4056;DHT22;2043;52.184;8.690;2022-11-15T03:49:07;11.50;99.90
4056;DHT22;2043;52.184;8.690;2022-11-15T03:51:35;11.50;99.90
4056;DHT22;2043;52.184;8.690;2022-11-15T03:54:05;11.60;99.90
4056;DHT22;2043;52.184;8.690;2022-11-15T03:56:33;11.50;99.90
4056;DHT22;2043;52.184;8.690;2022-11-15T03:58:59;11.50;99.90
4056;DHT22;2043;52.184;8.690;2022-11-15T04:01:26;11.50;99.90
4056;DHT22;2043;52.184;8.690;2022-11-15T04:03:53;11.60;99.90
4056;DHT22;2043;52.184;8.690;2022-11-15T04:06:20;11.60;99.90
4056;DHT22;2043;52.184;8.690;2022-11-15T04:08:47;11.50;99.90
4056;DHT22;2043;52.184;8.690;2022-11-15T04:11:14;11.40;99.90
4056;DHT22;2043;52.184;8.690;2022-11-15T04:13:40;11.40;99.90
4056;DHT22;2043;52.184;8.690;2022-11-15T04:16:07;11.50;99.90
4056;DHT22;2043;52.184;8.690;2022-11-15T04:18:34;11.60;99.90
4056;DHT22;2043;52.184;8.690;2022-11-15T04:21:00;11.70;99.90
4056;DHT22;2043;52.184;8.690;2022-11-15T04:23:46;11.60;99.90
4056;DHT22;2043;52.184;8.690;2022-11-15T04:26:31;11.70;99.90
4056;DHT22;2043;52.184;8.690;2022-11-15T04:28:58;11.90;99.90
4056;DHT22;2043;52.184;8.690;2022-11-15T04:31:44;11.80;99.90
4056;DHT22;2043;52.184;8.690;2022-11-15T04:34:10;11.80;99.90
4056;DHT22;2043;52.184;8.690;2022-11-15T04:36:37;11.70;99.90
4056;DHT22;2043;52.184;8.690;2022-11-15T04:39:23;11.50;99.90
4056;DHT22;2043;52.184;8.690;2022-11-15T04:41:49;11.60;99.90
4056;DHT22;2043;52.184;8.690;2022-11-15T04:44:16;11.70;99.90
4056;DHT22;2043;52.184;8.690;2022-11-15T04:46:43;11.50;99.90
4056;DHT22;2043;52.184;8.690;2022-11-15T04:49:10;11.50;99.90
4056;DHT22;2043;52.184;8.690;2022-11-15T04:51:36;11.50;99.90
4056;DHT22;2043;52.184;8.690;2022-11-15T04:54:03;11.50;99.90
4056;DHT22;2043;52.184;8.690;2022-11-15T04:56:30;11.40;99.90
4056;DHT22;2043;52.184;8.690;2022-11-15T04:58:57;11.40;99.90
4056;DHT22;2043;52.184;8.690;2022-11-15T05:01:24;11.30;99.90
4056;DHT22;2043;52.184;8.690;2022-11-15T05:03:51;11.40;99.90
4056;DHT22;2043;52.184;8.690;2022-11-15T05:06:36;11.40;99.90
4056;DHT22;2043;52.184;8.690;2022-11-15T05:09:03;11.50;99.90
4056;DHT22;2043;52.184;8.690;2022-11-15T05:11:30;11.50;99.90
4056;DHT22;2043;52.184;8.690;2022-11-15T05:13:57;11.50;99.90
4056;DHT22;2043;52.184;8.690;2022-11-15T05:16:24;11.50;99.90
4056;DHT22;2043;52.184;8.690;2022-11-15T05:18:54;11.50;99.90
4056;DHT22;2043;52.184;8.690;2022-11-15T05:21:21;11.60;99.90
4056;DHT22;2043;52.184;8.690;2022-11-15T05:23:48;11.50;99.90
4056;DHT22;2043;52.184;8.690;2022-11-15T05:26:16;11.50;99.90
4056;DHT22;2043;52.184;8.690;2022-11-15T05:28:44;11.50;99.90
4056;DHT22;2043;52.184;8.690;2022-11-15T05:31:13;11.50;99.90
4056;DHT22;2043;52.184;8.690;2022-11-15T05:33:41;11.50;99.90
4056;DHT22;2043;52.184;8.690;2022-11-15T05:38:54;11.60;99.90
4056;DHT22;2043;52.184;8.690;2022-11-15T05:41:44;11.60;99.90
4056;DHT22;2043;52.184;8.690;2022-11-15T05:44:14;11.50;99.90
4056;DHT22;2043;52.184;8.690;2022-11-15T05:46:42;11.60;99.90
4056;DHT22;2043;52.184;8.690;2022-11-15T05:49:12;11.70;99.90
4056;DHT22;2043;52.184;8.690;2022-11-15T05:51:41;11.50;99.90
4056;DHT22;2043;52.184;8.690;2022-11-15T05:54:11;11.50;99.90
4056;DHT22;2043;52.184;8.690;2022-11-15T05:56:38;11.50;99.90
4056;DHT22;2043;52.184;8.690;2022-11-15T05:59:06;11.40;99.90
4056;DHT22;2043;52.184;8.690;2022-11-15T06:01:33;11.40;99.90
4056;DHT22;2043;52.184;8.690;2022-11-15T06:04:00;11.40;99.90
4056;DHT22;2043;52.184;8.690;2022-11-15T06:06:28;11.30;99.90
4056;DHT22;2043;52.184;8.690;2022-11-15T06:08:55;11.30;99.90
4056;DHT22;2043;52.184;8.690;2022-11-15T06:11:22;11.30;99.90
4056;DHT22;2043;52.184;8.690;2022-11-15T06:13:48;11.30;99.90
4056;DHT22;2043;52.184;8.690;2022-11-15T06:16:15;11.30;99.90
4056;DHT22;2043;52.184;8.690;2022-11-15T06:18:42;11.30;99.90
4056;DHT22;2043;52.184;8.690;2022-11-15T06:21:09;11.30;99.90
4056;DHT22;2043;52.184;8.690;2022-11-15T06:23:36;11.30;99.90
4056;DHT22;2043;52.184;8.690;2022-11-15T06:26:03;11.20;99.90
4056;DHT22;2043;52.184;8.690;2022-11-15T06:28:31;11.30;99.90
4056;DHT22;2043;52.184;8.690;2022-11-15T06:31:06;11.30;99.90
4056;DHT22;2043;52.184;8.690;2022-11-15T06:33:32;11.50;99.90
4056;DHT22;2043;52.184;8.690;2022-11-15T06:36:05;11.50;99.90
4056;DHT22;2043;52.184;8.690;2022-11-15T06:38:32;11.50;99.90
4056;DHT22;2043;52.184;8.690;2022-11-15T06:41:08;11.60;99.90
4056;DHT22;2043;52.184;8.690;2022-11-15T06:43:35;11.60;99.90
4056;DHT22;2043;52.184;8.690;2022-11-15T06:46:04;11.60;99.90
4056;DHT22;2043;52.184;8.690;2022-11-15T06:48:32;11.70;99.90
4056;DHT22;2043;52.184;8.690;2022-11-15T06:51:00;11.70;99.90
4056;DHT22;2043;52.184;8.690;2022-11-15T06:53:28;11.90;99.90
4056;DHT22;2043;52.184;8.690;2022-11-15T06:56:04;11.80;99.90
4056;DHT22;2043;52.184;8.690;2022-11-15T06:58:31;11.90;99.90
4056;DHT22;2043;52.184;8.690;2022-11-15T07:01:03;12.00;99.90
4056;DHT22;2043;52.184;8.690;2022-11-15T07:03:30;11.90;99.90
4056;DHT22;2043;52.184;8.690;2022-11-15T07:05:58;11.80;99.90
4056;DHT22;2043;52.184;8.690;2022-11-15T07:08:32;11.80;99.90
4056;DHT22;2043;52.184;8.690;2022-11-15T07:11:05;11.90;99.90
4056;DHT22;2043;52.184;8.690;2022-11-15T07:13:32;12.00;99.90
4056;DHT22;2043;52.184;8.690;2022-11-15T07:16:04;12.00;99.90
4056;DHT22;2043;52.184;8.690;2022-11-15T07:18:34;12.00;99.90
4056;DHT22;2043;52.184;8.690;2022-11-15T07:21:06;12.00;99.90
4056;DHT22;2043;52.184;8.690;2022-11-15T07:23:33;11.90;99.90
4056;DHT22;2043;52.184;8.690;2022-11-15T07:26:02;11.90;99.90
4056;DHT22;2043;52.184;8.690;2022-11-15T07:28:29;12.00;99.90
4056;DHT22;2043;52.184;8.690;2022-11-15T07:30:56;12.00;99.90
4056;DHT22;2043;52.184;8.690;2022-11-15T07:33:22;12.10;99.90
4056;DHT22;2043;52.184;8.690;2022-11-15T07:35:49;12.20;99.90
4056;DHT22;2043;52.184;8.690;2022-11-15T07:38:17;12.40;99.40
4056;DHT22;2043;52.184;8.690;2022-11-15T07:40:47;12.40;98.90
4056;DHT22;2043;52.184;8.690;2022-11-15T07:43:14;12.50;98.80
4056;DHT22;2043;52.184;8.690;2022-11-15T07:45:44;12.50;98.70
4056;DHT22;2043;52.184;8.690;2022-11-15T07:48:11;12.50;98.60
4056;DHT22;2043;52.184;8.690;2022-11-15T07:50:42;12.60;98.60
4056;DHT22;2043;52.184;8.690;2022-11-15T07:53:09;12.60;98.40
4056;DHT22;2043;52.184;8.690;2022-11-15T07:55:39;12.70;98.40
4056;DHT22;2043;52.184;8.690;2022-11-15T07:58:11;12.70;98.50
4056;DHT22;2043;52.184;8.690;2022-11-15T08:00:38;12.70;98.30
4056;DHT22;2043;52.184;8.690;2022-11-15T08:03:08;12.70;98.20
4056;DHT22;2043;52.184;8.690;2022-11-15T08:05:35;12.70;98.10
4056;DHT22;2043;52.184;8.690;2022-11-15T08:08:03;12.70;98.10
4056;DHT22;2043;52.184;8.690;2022-11-15T08:10:30;12.60;98.30
4056;DHT22;2043;52.184;8.690;2022-11-15T08:13:06;12.70;98.00
4056;DHT22;2043;52.184;8.690;2022-11-15T08:15:33;12.70;97.80
4056;DHT22;2043;52.184;8.690;2022-11-15T08:18:03;12.90;97.50
4056;DHT22;2043;52.184;8.690;2022-11-15T08:20:31;13.00;97.40
4056;DHT22;2043;52.184;8.690;2022-11-15T08:22:59;13.00;97.10
4056;DHT22;2043;52.184;8.690;2022-11-15T08:25:28;13.30;96.80
4056;DHT22;2043;52.184;8.690;2022-11-15T08:28:00;13.50;95.80
4056;DHT22;2043;52.184;8.690;2022-11-15T08:30:27;13.30;96.10
4056;DHT22;2043;52.184;8.690;2022-11-15T08:32:57;13.50;96.00
4056;DHT22;2043;52.184;8.690;2022-11-15T08:35:24;13.70;95.10
4056;DHT22;2043;52.184;8.690;2022-11-15T08:37:55;14.40;93.80
4056;DHT22;2043;52.184;8.690;2022-11-15T08:40:21;14.40;93.60
4056;DHT22;2043;52.184;8.690;2022-11-15T08:42:49;14.00;93.70
4056;DHT22;2043;52.184;8.690;2022-11-15T08:45:16;14.00;94.50
4056;DHT22;2043;52.184;8.690;2022-11-15T08:47:42;14.00;94.40
4056;DHT22;2043;52.184;8.690;2022-11-15T08:50:09;14.10;94.30
4056;DHT22;2043;52.184;8.690;2022-11-15T08:52:36;14.10;94.10
4056;DHT22;2043;52.184;8.690;2022-11-15T08:55:03;14.30;93.70
4056;DHT22;2043;52.184;8.690;2022-11-15T08:57:30;14.00;94.20
4056;DHT22;2043;52.184;8.690;2022-11-15T08:59:57;14.50;93.50
4056;DHT22;2043;52.184;8.690;2022-11-15T09:02:24;14.50;92.60
4056;DHT22;2043;52.184;8.690;2022-11-15T09:04:51;14.60;93.10
4056;DHT22;2043;52.184;8.690;2022-11-15T09:07:17;14.60;92.90
4056;DHT22;2043;52.184;8.690;2022-11-15T09:09:44;15.10;91.50
4056;DHT22;2043;52.184;8.690;2022-11-15T09:12:11;14.50;92.60
4056;DHT22;2043;52.184;8.690;2022-11-15T09:17:08;14.30;93.20
4056;DHT22;2043;52.184;8.690;2022-11-15T09:19:35;14.30;93.20
4056;DHT22;2043;52.184;8.690;2022-11-15T09:22:06;15.00;91.80
4056;DHT22;2043;52.184;8.690;2022-11-15T09:24:34;16.20;88.80
4056;DHT22;2043;52.184;8.690;2022-11-15T09:27:00;16.20;88.50
4056;DHT22;2043;52.184;8.690;2022-11-15T09:29:27;17.30;85.50
4056;DHT22;2043;52.184;8.690;2022-11-15T09:31:54;17.40;85.00
4056;DHT22;2043;52.184;8.690;2022-11-15T09:34:21;18.00;83.00
4056;DHT22;2043;52.184;8.690;2022-11-15T09:36:47;18.00;83.00
4056;DHT22;2043;52.184;8.690;2022-11-15T09:39:14;17.60;83.60
4056;DHT22;2043;52.184;8.690;2022-11-15T09:45:31;18.00;81.70
4056;DHT22;2043;52.184;8.690;2022-11-15T09:50:49;19.00;80.30
4056;DHT22;2043;52.184;8.690;2022-11-15T09:53:32;19.60;79.20
4056;DHT22;2043;52.184;8.690;2022-11-15T09:56:27;19.50;77.90
4056;DHT22;2043;52.184;8.690;2022-11-15T10:04:36;17.80;81.10
4056;DHT22;2043;52.184;8.690;2022-11-15T10:07:14;17.80;81.10
4056;DHT22;2043;52.184;8.690;2022-11-15T10:12:24;17.80;80.90
4056;DHT22;2043;52.184;8.690;2022-11-15T10:15:00;18.00;79.90
4056;DHT22;2043;52.184;8.690;2022-11-15T10:22:41;18.50;77.50
4056;DHT22;2043;52.184;8.690;2022-11-15T10:28:17;18.90;76.50
4056;DHT22;2043;52.184;8.690;2022-11-15T10:30:47;19.00;76.80
4056;DHT22;2043;52.184;8.690;2022-11-15T10:46:36;19.00;75.80
4056;DHT22;2043;52.184;8.690;2022-11-15T10:49:16;19.10;75.80
4056;DHT22;2043;52.184;8.690;2022-11-15T10:52:17;19.80;74.60
4056;DHT22;2043;52.184;8.690;2022-11-15T10:57:25;18.40;76.60
4056;DHT22;2043;52.184;8.690;2022-11-15T10:59:55;18.60;76.30
4056;DHT22;2043;52.184;8.690;2022-11-15T11:02:30;19.30;73.90
4056;DHT22;2043;52.184;8.690;2022-11-15T11:04:58;20.10;73.50
4056;DHT22;2043;52.184;8.690;2022-11-15T11:07:33;20.40;73.30
4056;DHT22;2043;52.184;8.690;2022-11-15T11:10:17;20.40;71.70
4056;DHT22;2043;52.184;8.690;2022-11-15T11:13:21;20.50;70.10
4056;DHT22;2043;52.184;8.690;2022-11-15T11:18:54;20.70;69.00
4056;DHT22;2043;52.184;8.690;2022-11-15T11:25:04;21.40;67.70
4056;DHT22;2043;52.184;8.690;2022-11-15T11:30:15;20.80;70.20
4056;DHT22;2043;52.184;8.690;2022-11-15T11:38:11;20.40;70.90
4056;DHT22;2043;52.184;8.690;2022-11-15T11:49:03;19.30;72.80
4056;DHT22;2043;52.184;8.690;2022-11-15T11:51:41;19.10;73.60
4056;DHT22;2043;52.184;8.690;2022-11-15T11:54:42;20.30;71.50
4056;DHT22;2043;52.184;8.690;2022-11-15T11:57:23;20.10;71.80
4056;DHT22;2043;52.184;8.690;2022-11-15T12:00:00;19.80;72.90
4056;DHT22;2043;52.184;8.690;2022-11-15T12:02:30;20.90;71.10
4056;DHT22;2043;52.184;8.690;2022-11-15T12:08:08;19.00;76.20
4056;DHT22;2043;52.184;8.690;2022-11-15T12:10:37;19.90;73.00
4056;DHT22;2043;52.184;8.690;2022-11-15T12:13:16;20.20;72.30
4056;DHT22;2043;52.184;8.690;2022-11-15T12:18:36;18.60;74.80
4056;DHT22;2043;52.184;8.690;2022-11-15T12:21:15;18.50;74.80
4056;DHT22;2043;52.184;8.690;2022-11-15T12:23:48;18.20;76.20
4056;DHT22;2043;52.184;8.690;2022-11-15T12:26:20;18.10;76.00
4056;DHT22;2043;52.184;8.690;2022-11-15T12:28:55;18.00;76.50
4056;DHT22;2043;52.184;8.690;2022-11-15T12:31:41;18.10;76.40
4056;DHT22;2043;52.184;8.690;2022-11-15T12:34:34;18.10;76.40
4056;DHT22;2043;52.184;8.690;2022-11-15T12:43:03;19.20;74.90
4056;DHT22;2043;52.184;8.690;2022-11-15T12:45:38;19.20;74.20
4056;DHT22;2043;52.184;8.690;2022-11-15T12:50:54;17.30;77.60
4056;DHT22;2043;52.184;8.690;2022-11-15T12:58:44;16.90;78.60
4056;DHT22;2043;52.184;8.690;2022-11-15T13:06:55;16.80;78.50
4056;DHT22;2043;52.184;8.690;2022-11-15T13:09:51;16.90;79.10
4056;DHT22;2043;52.184;8.690;2022-11-15T13:15:00;16.30;79.60
4056;DHT22;2043;52.184;8.690;2022-11-15T13:22:59;16.10;80.30
4056;DHT22;2043;52.184;8.690;2022-11-15T13:27:58;15.90;80.80
4056;DHT22;2043;52.184;8.690;2022-11-15T13:30:32;16.30;81.30
4056;DHT22;2043;52.184;8.690;2022-11-15T13:33:07;16.50;84.10
4056;DHT22;2043;52.184;8.690;2022-11-15T13:35:39;16.50;84.70
4056;DHT22;2043;52.184;8.690;2022-11-15T13:38:06;16.40;84.70
4056;DHT22;2043;52.184;8.690;2022-11-15T13:40:43;16.20;85.60
4056;DHT22;2043;52.184;8.690;2022-11-15T13:48:40;16.30;85.30
4056;DHT22;2043;52.184;8.690;2022-11-15T13:51:43;16.10;86.10
4056;DHT22;2043;52.184;8.690;2022-11-15T13:54:39;16.00;86.60
4056;DHT22;2043;52.184;8.690;2022-11-15T13:57:17;16.00;86.50
4056;DHT22;2043;52.184;8.690;2022-11-15T14:02:32;16.10;86.20
4056;DHT22;2043;52.184;8.690;2022-11-15T14:05:05;15.90;86.80
4056;DHT22;2043;52.184;8.690;2022-11-15T14:07:39;16.10;86.50
4056;DHT22;2043;52.184;8.690;2022-11-15T14:12:57;16.00;86.30
4056;DHT22;2043;52.184;8.690;2022-11-15T14:15:33;15.80;86.60
4056;DHT22;2043;52.184;8.690;2022-11-15T14:18:01;15.90;87.00
4056;DHT22;2043;52.184;8.690;2022-11-15T14:20:33;15.80;86.50
4056;DHT22;2043;52.184;8.690;2022-11-15T14:23:03;15.90;86.80
4056;DHT22;2043;52.184;8.690;2022-11-15T14:25:34;16.00;86.60
4056;DHT22;2043;52.184;8.690;2022-11-15T14:30:50;15.80;86.70
4056;DHT22;2043;52.184;8.690;2022-11-15T14:35:56;15.40;88.20
4056;DHT22;2043;52.184;8.690;2022-11-15T14:38:26;15.30;88.80
4056;DHT22;2043;52.184;8.690;2022-11-15T14:40:54;15.00;88.70
4056;DHT22;2043;52.184;8.690;2022-11-15T14:43:22;15.00;88.20
4056;DHT22;2043;52.184;8.690;2022-11-15T14:45:49;15.10;87.70
4056;DHT22;2043;52.184;8.690;2022-11-15T14:48:16;15.10;87.70
4056;DHT22;2043;52.184;8.690;2022-11-15T14:50:43;14.90;88.10
4056;DHT22;2043;52.184;8.690;2022-11-15T14:53:12;14.90;87.80
4056;DHT22;2043;52.184;8.690;2022-11-15T14:55:40;14.80;88.30
4056;DHT22;2043;52.184;8.690;2022-11-15T14:58:07;14.80;88.30
4056;DHT22;2043;52.184;8.690;2022-11-15T15:00:39;14.90;87.00
4056;DHT22;2043;52.184;8.690;2022-11-15T15:03:06;14.90;87.00
4056;DHT22;2043;52.184;8.690;2022-11-15T15:05:34;14.70;86.80
4056;DHT22;2043;52.184;8.690;2022-11-15T15:08:01;14.50;87.20
4056;DHT22;2043;52.184;8.690;2022-11-15T15:10:32;14.40;87.30
4056;DHT22;2043;52.184;8.690;2022-11-15T15:13:22;14.50;87.30
4056;DHT22;2043;52.184;8.690;2022-11-15T15:15:50;14.30;87.40
4056;DHT22;2043;52.184;8.690;2022-11-15T15:18:17;14.20;87.60
4056;DHT22;2043;52.184;8.690;2022-11-15T15:20:53;14.10;87.50
4056;DHT22;2043;52.184;8.690;2022-11-15T15:23:20;14.10;87.70
4056;DHT22;2043;52.184;8.690;2022-11-15T15:25:48;14.10;87.80
4056;DHT22;2043;52.184;8.690;2022-11-15T15:28:16;14.20;87.10
4056;DHT22;2043;52.184;8.690;2022-11-15T15:30:43;14.20;87.20
4056;DHT22;2043;52.184;8.690;2022-11-15T15:33:10;14.20;87.10
4056;DHT22;2043;52.184;8.690;2022-11-15T15:35:36;14.30;87.10
4056;DHT22;2043;52.184;8.690;2022-11-15T15:38:03;14.10;87.20
4056;DHT22;2043;52.184;8.690;2022-11-15T15:40:32;14.10;87.00
4056;DHT22;2043;52.184;8.690;2022-11-15T15:42:59;14.10;87.20
4056;DHT22;2043;52.184;8.690;2022-11-15T15:45:26;14.20;87.00
4056;DHT22;2043;52.184;8.690;2022-11-15T15:47:54;14.10;87.20
4056;DHT22;2043;52.184;8.690;2022-11-15T15:52:49;14.20;87.30
4056;DHT22;2043;52.184;8.690;2022-11-15T15:55:16;14.20;87.40
4056;DHT22;2043;52.184;8.690;2022-11-15T15:57:43;14.30;87.30
4056;DHT22;2043;52.184;8.690;2022-11-15T16:00:10;14.20;87.00
4056;DHT22;2043;52.184;8.690;2022-11-15T16:02:38;14.10;87.40
4056;DHT22;2043;52.184;8.690;2022-11-15T16:05:07;14.10;87.30
4056;DHT22;2043;52.184;8.690;2022-11-15T16:07:34;14.10;87.40
4056;DHT22;2043;52.184;8.690;2022-11-15T16:12:52;14.00;88.00
4056;DHT22;2043;52.184;8.690;2022-11-15T16:15:20;13.80;88.20
4056;DHT22;2043;52.184;8.690;2022-11-15T16:17:50;13.90;88.30
4056;DHT22;2043;52.184;8.690;2022-11-15T16:22:56;14.20;87.50
4056;DHT22;2043;52.184;8.690;2022-11-15T16:25:23;14.20;87.80
4056;DHT22;2043;52.184;8.690;2022-11-15T16:27:50;14.20;87.70
4056;DHT22;2043;52.184;8.690;2022-11-15T16:30:20;14.00;88.40
4056;DHT22;2043;52.184;8.690;2022-11-15T16:32:47;14.10;88.20
4056;DHT22;2043;52.184;8.690;2022-11-15T16:35:15;14.00;88.60
4056;DHT22;2043;52.184;8.690;2022-11-15T16:37:43;14.00;88.80
4056;DHT22;2043;52.184;8.690;2022-11-15T16:40:41;14.00;89.10
4056;DHT22;2043;52.184;8.690;2022-11-15T16:43:08;13.90;89.50
4056;DHT22;2043;52.184;8.690;2022-11-15T16:45:34;13.90;89.90
4056;DHT22;2043;52.184;8.690;2022-11-15T16:48:01;13.90;90.30
4056;DHT22;2043;52.184;8.690;2022-11-15T16:50:31;14.00;90.40
4056;DHT22;2043;52.184;8.690;2022-11-15T16:53:00;13.90;90.80
4056;DHT22;2043;52.184;8.690;2022-11-15T16:55:28;13.70;91.60
4056;DHT22;2043;52.184;8.690;2022-11-15T16:57:56;13.70;91.90
4056;DHT22;2043;52.184;8.690;2022-11-15T17:00:27;13.70;92.00
4056;DHT22;2043;52.184;8.690;2022-11-15T17:02:54;13.80;92.00
4056;DHT22;2043;52.184;8.690;2022-11-15T17:05:22;13.80;92.10
4056;DHT22;2043;52.184;8.690;2022-11-15T17:07:50;13.90;92.00
4056;DHT22;2043;52.184;8.690;2022-11-15T17:10:21;13.80;92.50
4056;DHT22;2043;52.184;8.690;2022-11-15T17:12:49;13.80;92.50
4056;DHT22;2043;52.184;8.690;2022-11-15T17:15:17;13.80;92.50
4056;DHT22;2043;52.184;8.690;2022-11-15T17:17:44;13.60;93.00
4056;DHT22;2043;52.184;8.690;2022-11-15T17:20:17;13.70;92.90
4056;DHT22;2043;52.184;8.690;2022-11-15T17:22:44;13.70;92.80
4056;DHT22;2043;52.184;8.690;2022-11-15T17:25:13;13.70;92.80
4056;DHT22;2043;52.184;8.690;2022-11-15T17:27:40;13.60;92.90
4056;DHT22;2043;52.184;8.690;2022-11-15T17:30:08;13.60;92.90
4056;DHT22;2043;52.184;8.690;2022-11-15T17:32:36;13.70;92.70
4056;DHT22;2043;52.184;8.690;2022-11-15T17:35:03;13.70;92.50
4056;DHT22;2043;52.184;8.690;2022-11-15T17:37:39;13.70;92.50
4056;DHT22;2043;52.184;8.690;2022-11-15T17:40:06;13.60;92.80
4056;DHT22;2043;52.184;8.690;2022-11-15T17:42:33;13.60;92.80
4056;DHT22;2043;52.184;8.690;2022-11-15T17:45:00;13.70;92.70
4056;DHT22;2043;52.184;8.690;2022-11-15T17:47:35;13.60;92.80
4056;DHT22;2043;52.184;8.690;2022-11-15T17:50:02;13.50;93.00
4056;DHT22;2043;52.184;8.690;2022-11-15T17:52:29;13.70;92.70
4056;DHT22;2043;52.184;8.690;2022-11-15T17:54:55;13.50;93.00
4056;DHT22;2043;52.184;8.690;2022-11-15T17:57:22;13.50;93.20
4056;DHT22;2043;52.184;8.690;2022-11-15T17:59:49;13.70;92.80
4056;DHT22;2043;52.184;8.690;2022-11-15T18:02:16;13.60;93.00
4056;DHT22;2043;52.184;8.690;2022-11-15T18:04:43;13.60;93.10
4056;DHT22;2043;52.184;8.690;2022-11-15T18:12:09;13.40;94.00
4056;DHT22;2043;52.184;8.690;2022-11-15T18:14:36;13.40;94.00
4056;DHT22;2043;52.184;8.690;2022-11-15T18:19:30;13.60;93.90
4056;DHT22;2043;52.184;8.690;2022-11-15T18:21:56;13.50;94.10
4056;DHT22;2043;52.184;8.690;2022-11-15T18:24:32;13.50;94.30
4056;DHT22;2043;52.184;8.690;2022-11-15T18:27:02;13.50;94.40
4056;DHT22;2043;52.184;8.690;2022-11-15T18:29:29;13.50;94.50
4056;DHT22;2043;52.184;8.690;2022-11-15T18:31:56;13.40;94.70
4056;DHT22;2043;52.184;8.690;2022-11-15T18:34:25;13.40;94.70
4056;DHT22;2043;52.184;8.690;2022-11-15T18:36:57;13.40;94.90
4056;DHT22;2043;52.184;8.690;2022-11-15T18:39:24;13.50;95.10
4056;DHT22;2043;52.184;8.690;2022-11-15T18:41:51;13.30;95.40
4056;DHT22;2043;52.184;8.690;2022-11-15T18:44:18;13.30;95.50
4056;DHT22;2043;52.184;8.690;2022-11-15T18:46:45;13.30;95.60
4056;DHT22;2043;52.184;8.690;2022-11-15T18:49:13;13.30;95.40
4056;DHT22;2043;52.184;8.690;2022-11-15T18:51:42;13.30;95.70
4056;DHT22;2043;52.184;8.690;2022-11-15T18:54:11;13.30;95.60
4056;DHT22;2043;52.184;8.690;2022-11-15T18:56:38;13.40;95.50
4056;DHT22;2043;52.184;8.690;2022-11-15T18:59:05;13.30;95.70
4056;DHT22;2043;52.184;8.690;2022-11-15T19:01:39;13.20;95.90
4056;DHT22;2043;52.184;8.690;2022-11-15T19:04:15;13.30;95.70
4056;DHT22;2043;52.184;8.690;2022-11-15T19:06:44;13.20;95.60
4056;DHT22;2043;52.184;8.690;2022-11-15T19:09:15;13.10;95.70
4056;DHT22;2043;52.184;8.690;2022-11-15T19:11:44;13.10;96.20